Time;durP1;ratioP1;P1;durP2;ratioP2;P2;SDS_P1;SDS_P2;PMS_P1;PMS_P2;Temp;Humidity;BMP_temperature;BMP_pressure;BME280_temperature;BME280_humidity;BME280_pressure;Samples;Min_cycle;Max_cycle;Signal;HPM_P1;HPM_P2
2021/05/16 03:02:08;;;;;;;9.60;6.23;;;;;;;18.61;100.00;99991.94;1696986;79;64371;-68
2021/05/16 03:04:34;;;;;;;8.03;6.10;;;;;;;19.80;100.00;99989.17;1709322;82;21087;-79
2021/05/16 03:07:01;;;;;;;13.33;7.07;;;;;;;20.72;100.00;99982.77;1715467;82;22092;-79
2021/05/16 03:09:32;;;;;;;12.23;7.77;;;;;;;21.65;100.00;99976.76;1674460;85;21118;-80
2021/05/16 03:11:58;;;;;;;9.60;7.07;;;;;;;22.62;100.00;99974.64;1652972;85;21100;-80
2021/05/16 03:14:26;;;;;;;9.47;6.90;;;;;;;23.50;100.00;99974.82;1653919;85;20998;-81
2021/05/16 03:16:54;;;;;;;9.57;6.83;;;;;;;24.22;100.00;99987.64;1654723;84;21121;-69
2021/05/16 03:19:21;;;;;;;12.17;6.97;;;;;;;24.81;100.00;99991.85;1653241;85;22125;-81
2021/05/16 03:21:49;;;;;;;9.70;6.67;;;;;;;25.50;100.00;99992.38;1656387;85;21704;-81
2021/05/16 03:24:16;;;;;;;9.95;6.62;;;;;;;26.25;100.00;99983.45;1666754;84;21603;-82
2021/05/16 03:26:43;;;;;;;10.50;6.17;;;;;;;27.00;92.96;99991.70;1676315;83;21129;-79
2021/05/16 03:29:10;;;;;;;9.58;6.30;;;;;;;27.76;82.14;99990.62;1669309;84;21311;-77
2021/05/16 03:31:38;;;;;;;12.03;6.65;;;;;;;28.36;72.98;99987.53;1702533;82;21047;-79
2021/05/16 03:34:06;;;;;;;6.67;5.30;;;;;;;28.82;65.43;99983.63;1700165;82;21713;-80
2021/05/16 03:36:34;;;;;;;8.20;5.83;;;;;;;29.16;60.83;99988.86;1696769;84;20940;-70
2021/05/16 03:39:02;;;;;;;8.70;5.70;;;;;;;29.51;57.13;99984.86;1704815;82;21131;-69
2021/05/16 03:41:29;;;;;;;9.00;5.90;;;;;;;29.79;53.26;99984.80;1716096;82;21144;-78
2021/05/16 03:43:55;;;;;;;8.03;5.10;;;;;;;29.80;50.53;99985.59;1713159;82;20969;-80
2021/05/16 03:46:22;;;;;;;10.88;5.45;;;;;;;29.71;49.67;99986.95;1683082;83;21104;-79
2021/05/16 03:48:49;;;;;;;8.25;5.60;;;;;;;29.74;48.25;99976.92;1690653;82;21109;-79
2021/05/16 03:51:16;;;;;;;6.65;5.05;;;;;;;30.16;47.70;99973.67;1713915;82;21004;-73
2021/05/16 03:53:42;;;;;;;10.10;5.90;;;;;;;30.56;45.36;99980.89;1716718;82;21169;-81
2021/05/16 03:56:10;;;;;;;8.35;5.15;;;;;;;30.49;44.21;99977.36;1711639;82;21606;-75
2021/05/16 03:58:37;;;;;;;12.80;6.50;;;;;;;30.23;44.71;99973.97;1716504;82;21054;-69
2021/05/16 04:01:04;;;;;;;9.05;6.87;;;;;;;30.21;45.31;99972.96;1712343;82;21151;-81
2021/05/16 04:03:33;;;;;;;8.70;5.75;;;;;;;30.29;44.94;99974.05;1682613;83;21143;-74
2021/05/16 04:06:00;;;;;;;8.25;6.17;;;;;;;30.42;44.70;99973.59;1711250;83;22007;-79
2021/05/16 04:08:26;;;;;;;9.50;6.22;;;;;;;30.78;44.31;99970.45;1676283;84;20974;-82
2021/05/16 04:10:53;;;;;;;10.05;7.25;;;;;;;30.99;43.35;99978.57;1710821;82;22111;-76
2021/05/16 04:13:19;;;;;;;7.80;6.87;;;;;;;31.15;42.07;99980.91;1710596;82;21025;-74
2021/05/16 04:15:46;;;;;;;9.70;7.30;;;;;;;31.25;42.19;99977.02;1712382;82;21943;-82
2021/05/16 04:18:13;;;;;;;10.08;7.22;;;;;;;31.65;40.88;99972.53;1712978;82;21015;-75
2021/05/16 04:20:40;;;;;;;8.20;7.37;;;;;;;32.03;40.19;99978.30;1711505;82;21034;-80
2021/05/16 04:23:06;;;;;;;9.48;6.30;;;;;;;32.52;39.16;99982.44;1712545;82;21098;-69
2021/05/16 04:25:34;;;;;;;6.60;5.12;;;;;;;32.68;38.27;99978.71;1710535;82;21036;-81
2021/05/16 04:28:00;;;;;;;8.00;4.80;;;;;;;32.67;37.64;99975.80;1712351;82;21003;-80
2021/05/16 04:30:28;;;;;;;6.92;5.67;;;;;;;32.70;37.53;99975.12;1676559;84;21025;-80
2021/05/16 04:32:55;;;;;;;8.08;5.47;;;;;;;32.83;37.40;99962.95;1665965;84;21084;-81
2021/05/16 04:35:21;;;;;;;6.45;5.55;;;;;;;32.95;36.70;99961.61;1662133;85;21110;-71
2021/05/16 04:37:48;;;;;;;6.10;4.78;;;;;;;32.97;36.63;99957.24;1682660;84;21176;-82
2021/05/16 04:40:16;;;;;;;4.53;3.22;;;;;;;33.06;37.03;99965.42;1676084;85;21884;-81
2021/05/16 04:42:43;;;;;;;4.22;2.30;;;;;;;33.34;35.40;99972.79;1713371;82;21576;-79
2021/05/16 04:45:11;;;;;;;4.33;2.15;;;;;;;33.31;34.33;99974.25;1677270;85;21060;-80
2021/05/16 04:47:38;;;;;;;3.98;2.20;;;;;;;33.24;34.07;99975.97;1710655;82;21187;-71
2021/05/16 04:50:07;;;;;;;4.30;1.95;;;;;;;33.09;34.03;99972.84;1712367;82;21383;-82
2021/05/16 04:52:34;;;;;;;5.53;1.80;;;;;;;32.98;33.22;99964.98;1677455;85;21065;-80
2021/05/16 04:55:00;;;;;;;3.45;1.85;;;;;;;32.83;34.07;99965.66;1712955;82;21647;-80
2021/05/16 04:57:27;;;;;;;5.10;1.70;;;;;;;32.79;33.30;99960.72;1712906;82;20949;-73
2021/05/16 04:59:53;;;;;;;3.37;1.60;;;;;;;32.72;33.38;99951.83;1712482;82;21570;-81
2021/05/16 05:02:20;;;;;;;4.58;1.80;;;;;;;32.43;33.35;99958.27;1712604;82;21147;-77
2021/05/16 05:04:47;;;;;;;3.20;1.80;;;;;;;32.09;34.27;99962.92;1712720;82;20969;-79
2021/05/16 05:07:16;;;;;;;2.42;1.70;;;;;;;32.04;34.64;99964.47;1675878;84;20918;-79
2021/05/16 05:09:43;;;;;;;3.27;1.60;;;;;;;31.96;35.29;99964.80;1711626;81;21031;-71
2021/05/16 05:12:10;;;;;;;3.35;2.00;;;;;;;32.13;35.64;99967.09;1712535;82;22319;-80
2021/05/16 05:14:37;;;;;;;3.05;1.50;;;;;;;32.20;35.24;99970.81;1711647;82;21116;-81
2021/05/16 05:17:04;;;;;;;4.45;1.40;;;;;;;32.04;35.16;99972.55;1711115;82;21612;-80
2021/05/16 05:19:31;;;;;;;4.72;1.77;;;;;;;31.86;35.65;99968.47;1675332;83;21085;-69
2021/05/16 05:21:57;;;;;;;2.58;1.22;;;;;;;31.83;35.66;99962.38;1648426;85;21125;-81
2021/05/16 05:24:24;;;;;;;2.70;1.47;;;;;;;31.83;35.60;99958.34;1678357;83;21140;-77
2021/05/16 05:26:51;;;;;;;3.37;1.40;;;;;;;31.79;35.56;99957.44;1713521;81;20977;-85
2021/05/16 05:29:19;;;;;;;3.92;1.92;;;;;;;31.64;35.76;99949.41;1712753;81;20955;-78
2021/05/16 05:31:45;;;;;;;2.50;1.40;;;;;;;31.69;36.31;99952.67;1711580;81;21532;-71
2021/05/16 05:34:12;;;;;;;3.75;1.77;;;;;;;31.78;36.35;99950.45;1711134;81;21054;-80
2021/05/16 05:36:39;;;;;;;4.58;1.75;;;;;;;31.93;35.88;99947.92;1717074;81;21065;-80
2021/05/16 05:39:06;;;;;;;4.03;1.72;;;;;;;31.96;34.65;99942.44;1712381;81;21049;-83
2021/05/16 05:41:34;;;;;;;3.37;1.67;;;;;;;31.74;34.61;99942.23;1714322;81;21019;-78
2021/05/16 05:44:02;;;;;;;3.08;1.67;;;;;;;31.85;34.66;99936.69;1711852;81;21600;-76
2021/05/16 05:46:29;;;;;;;4.22;1.42;;;;;;;31.92;34.30;99934.80;1713596;81;21499;-77
2021/05/16 05:48:56;;;;;;;3.75;1.40;;;;;;;31.98;33.88;99932.91;1713490;82;21094;-78
2021/05/16 05:51:22;;;;;;;3.83;1.40;;;;;;;31.94;34.22;99930.66;1724600;82;21593;-79
2021/05/16 05:53:50;;;;;;;2.62;1.55;;;;;;;31.99;34.26;99933.69;1675206;85;20954;-72
2021/05/16 05:56:16;;;;;;;3.10;1.42;;;;;;;32.12;34.69;99927.17;1709429;83;21290;-81
2021/05/16 05:58:43;;;;;;;5.12;2.02;;;;;;;32.42;34.22;99929.13;1713563;82;21097;-79
2021/05/16 06:01:10;;;;;;;3.83;1.70;;;;;;;32.66;33.48;99924.30;1721528;82;21081;-79
2021/05/16 06:03:36;;;;;;;4.50;1.75;;;;;;;32.98;33.97;99927.75;1723874;81;21511;-78
2021/05/16 06:06:03;;;;;;;2.15;1.02;;;;;;;33.09;32.47;99933.68;1711235;83;22416;-76
2021/05/16 06:08:30;;;;;;;3.10;1.27;;;;;;;32.91;32.75;99930.99;1712065;83;20974;-83
2021/05/16 06:10:57;;;;;;;2.33;1.20;;;;;;;32.78;33.13;99933.51;1715650;82;21027;-79
2021/05/16 06:13:24;;;;;;;3.00;1.25;;;;;;;32.69;33.44;99931.73;1711632;83;21106;-77
2021/05/16 06:15:50;;;;;;;2.87;1.20;;;;;;;32.63;33.50;99929.02;1711805;83;21080;-71
2021/05/16 06:18:18;;;;;;;2.70;1.22;;;;;;;32.77;33.57;99919.23;1676615;84;21602;-85
2021/05/16 06:20:44;;;;;;;2.37;1.12;;;;;;;32.94;32.05;99926.30;1687956;82;21130;-82
2021/05/16 06:23:13;;;;;;;2.50;1.40;;;;;;;32.86;32.10;99922.58;1709458;82;21009;-80
2021/05/16 06:25:39;;;;;;;2.55;1.30;;;;;;;32.72;32.70;99923.49;1712176;81;21132;-82
2021/05/16 06:28:06;;;;;;;2.00;1.10;;;;;;;32.78;32.08;99914.61;1709905;82;21091;-77
2021/05/16 06:30:33;;;;;;;3.87;1.40;;;;;;;32.76;32.07;99913.59;1715146;82;21439;-81
2021/05/16 06:33:01;;;;;;;2.70;1.42;;;;;;;32.63;32.48;99910.13;1713149;82;21081;-79
2021/05/16 06:35:27;;;;;;;3.62;1.60;;;;;;;32.51;31.98;99899.92;1711617;82;21059;-76
2021/05/16 06:37:54;;;;;;;2.52;1.55;;;;;;;32.32;32.78;99901.81;1715871;82;21095;-72
2021/05/16 06:40:20;;;;;;;3.10;1.35;;;;;;;32.02;33.27;99892.58;1711576;83;21023;-78
2021/05/16 06:42:46;;;;;;;2.05;1.30;;;;;;;31.82;33.16;99896.88;1717542;82;20948;-73
2021/05/16 06:45:13;;;;;;;2.42;1.65;;;;;;;31.53;34.10;99888.41;1678144;84;21001;-73
2021/05/16 06:47:41;;;;;;;2.42;1.50;;;;;;;31.31;35.11;99891.48;1712523;82;20967;-72
2021/05/16 06:50:09;;;;;;;4.28;1.80;;;;;;;31.13;34.78;99888.89;1711404;83;21641;-79
2021/05/16 06:52:36;;;;;;;3.37;1.92;;;;;;;30.89;35.54;99896.86;1677771;84;21379;-78
2021/05/16 06:55:07;;;;;;;8.48;1.85;;;;;;;30.82;37.02;99887.17;1712098;83;21069;-77
2021/05/16 06:57:33;;;;;;;2.87;1.77;;;;;;;31.24;36.98;99886.03;1676895;84;21017;-79
2021/05/16 07:00:00;;;;;;;3.02;1.52;;;;;;;31.84;36.24;99884.44;1711373;81;20960;-76
2021/05/16 07:02:27;;;;;;;5.92;1.57;;;;;;;32.33;35.00;99884.50;1714124;81;21067;-76
2021/05/16 07:04:54;;;;;;;3.10;1.70;;;;;;;32.90;35.28;99892.98;1720679;81;21464;-79
2021/05/16 07:09:43;;;;;;;4.30;1.60;;;;;;;33.07;32.39;99890.05;1806612;78;28468;-73
2021/05/16 07:12:11;;;;;;;3.37;1.62;;;;;;;32.98;33.04;99888.03;1788357;79;20882;-65
2021/05/16 07:14:40;;;;;;;4.28;1.82;;;;;;;33.17;32.80;99881.43;1793302;79;20914;-67
2021/05/16 07:17:06;;;;;;;1.70;1.10;;;;;;;33.60;32.82;99881.27;1790439;79;21050;-68
2021/05/16 07:19:34;;;;;;;2.98;1.55;;;;;;;34.26;31.87;99876.31;1791153;79;20983;-71
2021/05/16 07:22:00;;;;;;;3.08;1.20;;;;;;;34.84;30.19;99872.37;1770831;79;21036;-70
2021/05/16 07:24:27;;;;;;;3.12;1.20;;;;;;;35.22;30.03;99875.66;1774150;79;21542;-62
2021/05/16 07:26:54;;;;;;;3.20;1.50;;;;;;;35.23;28.87;99875.09;1781164;79;21076;-76
2021/05/16 07:29:21;;;;;;;2.00;1.10;;;;;;;34.93;27.76;99870.80;1776667;79;20969;-73
2021/05/16 07:31:48;;;;;;;2.47;1.22;;;;;;;34.60;28.06;99868.02;1791217;79;20949;-72
2021/05/16 07:34:15;;;;;;;3.85;1.40;;;;;;;34.26;27.33;99868.20;1789263;78;21448;-67
2021/05/16 07:36:41;;;;;;;4.20;1.55;;;;;;;33.98;28.41;99862.86;1759904;78;20889;-62
2021/05/16 07:39:08;;;;;;;3.50;1.60;;;;;;;33.99;29.02;99865.26;1799385;79;21602;-71
2021/05/16 07:41:34;;;;;;;7.10;1.60;;;;;;;34.01;28.08;99864.33;1783924;78;20990;-70
2021/05/16 07:44:02;;;;;;;4.40;1.30;;;;;;;33.93;28.02;99863.91;1785958;78;20890;-68
2021/05/16 07:46:28;;;;;;;2.30;1.50;;;;;;;33.92;28.09;99854.23;1781602;79;20997;-65
2021/05/16 07:48:56;;;;;;;3.05;1.70;;;;;;;34.07;28.56;99856.17;1782550;79;20997;-62
2021/05/16 07:51:23;;;;;;;3.75;1.80;;;;;;;34.33;27.67;99853.48;1787287;79;21089;-68
2021/05/16 07:53:50;;;;;;;3.40;1.60;;;;;;;34.47;27.92;99855.13;1773855;79;20955;-69
2021/05/16 07:56:16;;;;;;;3.42;1.70;;;;;;;34.62;27.65;99852.96;1771331;79;21013;-69
2021/05/16 07:58:43;;;;;;;3.95;1.80;;;;;;;34.69;27.75;99851.55;1777643;79;20962;-69
2021/05/16 08:01:09;;;;;;;3.75;1.60;;;;;;;34.48;27.18;99847.81;1778516;79;21016;-64
2021/05/16 08:03:36;;;;;;;2.77;1.40;;;;;;;34.13;28.04;99843.96;1787871;79;21143;-67
2021/05/16 08:06:04;;;;;;;5.22;1.60;;;;;;;34.00;28.06;99834.37;1773656;79;20965;-71
2021/05/16 08:08:31;;;;;;;3.02;1.57;;;;;;;33.92;27.80;99832.61;1787605;79;21175;-67
2021/05/16 08:10:58;;;;;;;4.35;2.10;;;;;;;33.89;28.68;99831.38;1793349;79;21028;-63
2021/05/16 08:13:26;;;;;;;4.42;1.70;;;;;;;33.88;28.49;99829.03;1785221;77;20930;-69
2021/05/16 08:15:52;;;;;;;4.62;1.57;;;;;;;33.77;28.47;99819.88;1783081;79;21098;-69
2021/05/16 08:18:19;;;;;;;3.15;1.70;;;;;;;33.43;28.92;99822.89;1790135;77;21041;-70
2021/05/16 08:20:46;;;;;;;3.60;1.70;;;;;;;33.25;28.73;99824.34;1789922;78;21633;-67
2021/05/16 08:23:12;;;;;;;4.15;1.90;;;;;;;33.10;29.17;99819.12;1784851;79;21001;-64
2021/05/16 08:25:39;;;;;;;3.65;1.67;;;;;;;33.00;29.90;99815.58;1778459;79;20980;-69
2021/05/16 08:28:06;;;;;;;4.47;1.72;;;;;;;33.22;30.75;99820.19;1792969;79;21197;-72
2021/05/16 08:30:32;;;;;;;3.50;1.45;;;;;;;33.52;28.47;99813.28;1781203;79;21044;-69
2021/05/16 08:32:59;;;;;;;4.12;2.15;;;;;;;33.59;28.99;99812.11;1796845;79;20927;-70
2021/05/16 08:35:25;;;;;;;3.22;1.70;;;;;;;33.60;28.34;99808.30;1779938;79;20997;-62
2021/05/16 08:37:52;;;;;;;5.45;1.90;;;;;;;33.48;28.66;99802.95;1784801;79;21605;-69
2021/05/16 08:40:19;;;;;;;3.98;2.02;;;;;;;33.63;29.44;99798.11;1782443;79;21079;-67
2021/05/16 08:42:45;;;;;;;2.95;1.62;;;;;;;33.84;28.69;99801.13;1783442;79;20949;-69
2021/05/16 08:45:13;;;;;;;2.98;1.80;;;;;;;33.80;28.19;99796.20;1785457;79;20949;-69
2021/05/16 08:47:42;;;;;;;5.75;1.90;;;;;;;33.73;27.46;99790.63;1779352;79;21634;-63
2021/05/16 08:50:12;;;;;;;5.90;1.95;;;;;;;33.77;27.97;99786.09;1798387;79;21272;-69
2021/05/16 08:52:38;;;;;;;4.20;1.77;;;;;;;33.93;28.37;99784.14;1799834;79;21696;-70
2021/05/16 08:55:06;;;;;;;3.80;2.08;;;;;;;34.20;27.90;99776.27;1793210;78;20970;-69
2021/05/16 08:57:33;;;;;;;3.10;1.65;;;;;;;34.42;27.83;99780.20;1804349;79;20880;-62
2021/05/16 09:00:20;;;;;;;2.25;1.47;;;;;;;34.59;27.17;99775.20;1795443;79;21036;-69
2021/05/16 09:03:08;;;;;;;5.78;1.90;;;;;;;34.64;27.27;99770.06;1781499;79;20945;-73
2021/05/16 09:05:45;;;;;;;5.17;2.27;;;;;;;34.58;27.58;99771.47;1781216;79;20996;-71
2021/05/16 09:08:22;;;;;;;5.00;2.20;;;;;;;33.97;27.71;99770.70;1781039;79;20958;-72
2021/05/16 09:10:57;;;;;;;4.75;1.98;;;;;;;33.82;28.49;99770.94;1782186;79;21018;-65
2021/05/16 09:13:38;;;;;;;4.40;1.92;;;;;;;33.96;28.29;99765.87;1777761;79;21025;-68
2021/05/16 09:16:15;;;;;;;3.00;2.02;;;;;;;34.00;28.34;99769.46;1785985;79;21519;-69
2021/05/16 09:18:47;;;;;;;5.70;1.82;;;;;;;34.09;27.91;99763.28;1781005;79;21087;-68
2021/05/16 09:21:30;;;;;;;2.85;2.10;;;;;;;34.14;28.58;99759.53;1787733;79;20961;-69
2021/05/16 09:24:06;;;;;;;3.08;1.85;;;;;;;33.96;28.18;99738.83;1785024;79;20926;-64
2021/05/16 09:26:53;;;;;;;2.85;1.95;;;;;;;33.69;29.40;99754.05;1780925;79;21630;-70
2021/05/16 09:29:43;;;;;;;4.92;2.15;;;;;;;33.61;29.01;99755.80;1780478;79;20970;-71
2021/05/16 09:32:09;;;;;;;6.80;2.08;;;;;;;33.52;28.78;99749.00;1783104;79;21703;-66
2021/05/16 09:34:40;;;;;;;4.15;1.80;;;;;;;33.59;29.63;99745.12;1793748;79;22210;-70
2021/05/16 09:37:10;;;;;;;3.08;1.77;;;;;;;33.88;28.08;99739.80;1770651;79;20953;-67
2021/05/16 09:39:38;;;;;;;2.37;1.85;;;;;;;33.92;28.31;99732.56;1770173;79;20997;-71
2021/05/16 09:42:13;;;;;;;7.35;2.30;;;;;;;34.00;28.74;99732.95;1770706;79;20973;-67
2021/05/16 09:44:45;;;;;;;3.98;1.67;;;;;;;34.25;28.01;99728.08;1775138;79;21386;-71
2021/05/16 09:47:25;;;;;;;3.55;2.00;;;;;;;34.46;27.76;99731.78;1774884;79;20875;-62
2021/05/16 09:50:02;;;;;;;3.30;1.80;;;;;;;34.56;27.18;99728.53;1774546;79;21009;-68
2021/05/16 09:52:34;;;;;;;3.27;1.67;;;;;;;34.72;26.73;99724.95;1778558;79;20910;-70
2021/05/16 09:55:08;;;;;;;4.25;2.00;;;;;;;34.77;26.94;99711.89;1770616;79;21615;-63
2021/05/16 09:57:41;;;;;;;4.22;2.30;;;;;;;34.90;26.86;99709.82;1776368;79;21086;-70
2021/05/16 10:00:13;;;;;;;3.17;1.90;;;;;;;35.12;27.48;99703.42;1774618;79;20996;-70
2021/05/16 10:02:40;;;;;;;4.12;1.82;;;;;;;35.10;26.92;99700.52;1780475;79;21003;-67
2021/05/16 10:05:09;;;;;;;3.75;2.20;;;;;;;34.91;28.21;99697.84;1778279;79;20995;-74
2021/05/16 10:07:41;;;;;;;3.05;1.87;;;;;;;35.05;27.84;99697.34;1782388;79;21048;-67
2021/05/16 10:10:10;;;;;;;4.42;1.98;;;;;;;35.17;27.22;99688.24;1780021;79;21115;-73
2021/05/16 10:12:37;;;;;;;3.27;2.08;;;;;;;35.22;26.99;99691.41;1776619;79;20978;-75
2021/05/16 10:15:19;;;;;;;3.20;2.10;;;;;;;35.29;26.42;99683.98;1775157;79;21061;-75
2021/05/16 10:17:55;;;;;;;4.25;2.08;;;;;;;35.23;27.33;99689.48;1776531;79;22276;-74
2021/05/16 10:20:25;;;;;;;4.17;1.72;;;;;;;35.01;27.34;99683.73;1703397;79;20926;-73
2021/05/16 10:22:57;;;;;;;4.75;2.08;;;;;;;34.73;27.41;99689.39;1782586;79;23928;-74
2021/05/16 10:25:47;;;;;;;3.72;1.67;;;;;;;34.53;26.78;99677.04;1777942;79;20892;-63
2021/05/16 10:28:16;;;;;;;9.05;2.40;;;;;;;34.40;28.42;99681.80;1783281;79;21108;-76
2021/05/16 10:31:02;;;;;;;7.80;2.62;;;;;;;34.43;28.10;99670.24;1783612;79;20918;-74
2021/05/16 10:33:35;;;;;;;3.27;1.77;;;;;;;34.78;28.21;99663.97;1785061;79;21306;-76
2021/05/16 10:36:03;;;;;;;5.55;1.77;;;;;;;35.10;27.39;99661.23;1772901;79;21954;-73
2021/05/16 10:38:42;;;;;;;3.20;1.97;;;;;;;35.13;27.27;99654.89;1737584;81;21618;-72
2021/05/16 10:41:24;;;;;;;4.42;1.92;;;;;;;35.22;26.58;99655.41;1775919;79;20993;-66
2021/05/16 10:43:51;;;;;;;2.75;1.60;;;;;;;34.93;27.28;99661.71;1775953;79;21010;-76
2021/05/16 10:46:42;;;;;;;3.85;1.90;;;;;;;34.68;27.06;99652.38;1791812;79;21575;-73
2021/05/16 10:49:27;;;;;;;4.53;1.90;;;;;;;34.61;27.55;99640.84;1782835;79;21062;-73
2021/05/16 10:51:54;;;;;;;3.72;1.90;;;;;;;34.58;27.65;99642.91;1772896;79;21077;-64
2021/05/16 10:54:33;;;;;;;2.92;1.70;;;;;;;34.58;27.45;99639.62;1775642;79;21576;-73
2021/05/16 10:57:18;;;;;;;5.35;1.87;;;;;;;34.75;27.22;99637.61;1784051;79;21096;-70
2021/05/16 10:59:45;;;;;;;12.13;2.50;;;;;;;34.61;27.75;99634.84;1770876;79;21500;-62
2021/05/16 11:02:58;;;;;;;3.10;1.82;;;;;;;34.36;27.54;99629.52;1772525;79;20981;-63
2021/05/16 11:05:53;;;;;;;6.12;2.00;;;;;;;34.20;27.79;99626.91;1776822;79;21408;-64
2021/05/16 11:08:29;;;;;;;6.55;2.00;;;;;;;33.76;27.60;99619.63;1784507;79;20898;-67
2021/05/16 11:10:56;;;;;;;6.47;2.37;;;;;;;33.62;28.62;99622.23;1790407;79;21037;-63
2021/05/16 11:13:27;;;;;;;3.90;1.92;;;;;;;33.88;28.70;99620.84;1791151;79;21116;-68
2021/05/16 11:15:57;;;;;;;2.85;1.90;;;;;;;34.02;28.43;99617.11;1775103;79;21075;-73
2021/05/16 11:18:23;;;;;;;3.02;1.90;;;;;;;34.12;29.18;99613.81;1778775;79;20958;-72
2021/05/16 11:20:56;;;;;;;2.92;1.85;;;;;;;34.15;28.57;99606.91;1776455;79;20970;-71
2021/05/16 11:23:34;;;;;;;3.87;1.98;;;;;;;34.23;27.73;99598.36;1786479;79;21144;-74
2021/05/16 11:26:05;;;;;;;3.30;1.70;;;;;;;34.38;27.51;99596.91;1787262;79;21630;-69
2021/05/16 11:28:37;;;;;;;3.47;1.70;;;;;;;34.41;27.66;99588.66;1773434;79;21564;-65
2021/05/16 11:31:11;;;;;;;4.00;2.17;;;;;;;34.35;27.49;99588.16;1770316;79;21005;-71
2021/05/16 11:33:39;;;;;;;3.87;2.00;;;;;;;34.33;27.47;99585.61;1779745;79;20975;-71
2021/05/16 11:36:14;;;;;;;4.90;1.98;;;;;;;34.00;28.23;99582.09;1778135;78;21111;-70
2021/05/16 11:38:43;;;;;;;4.85;2.05;;;;;;;33.81;28.11;99579.56;1777944;79;20929;-69
2021/05/16 11:41:40;;;;;;;2.83;1.80;;;;;;;33.72;27.63;99562.79;1767380;79;21100;-71
2021/05/16 11:44:10;;;;;;;2.72;1.70;;;;;;;33.72;28.96;99568.73;1771337;79;21050;-68
2021/05/16 11:46:43;;;;;;;6.00;1.90;;;;;;;33.84;29.08;99563.21;1782386;79;20935;-73
2021/05/16 11:49:15;;;;;;;3.52;1.92;;;;;;;33.84;28.41;99558.58;1777495;78;21628;-76
2021/05/16 11:51:42;;;;;;;3.98;1.92;;;;;;;33.69;28.17;99552.68;1773504;79;21528;-61
2021/05/16 11:54:13;;;;;;;5.47;2.10;;;;;;;33.39;28.46;99551.84;1780246;79;21073;-74
2021/05/16 11:56:47;;;;;;;2.95;1.47;;;;;;;33.15;29.16;99547.47;1763221;79;21677;-75
2021/05/16 11:59:14;;;;;;;3.12;1.80;;;;;;;33.13;29.64;99548.37;1785521;79;20851;-72
2021/05/16 12:01:43;;;;;;;3.65;1.60;;;;;;;33.16;29.90;99558.48;1788262;79;20997;-72
2021/05/16 12:04:17;;;;;;;2.20;1.60;;;;;;;33.23;29.80;99544.92;1779540;79;21013;-73
2021/05/16 12:06:52;;;;;;;4.90;1.75;;;;;;;33.15;29.86;99554.78;1777227;79;21091;-74
2021/05/16 12:09:22;;;;;;;4.75;2.02;;;;;;;33.00;29.52;99545.58;1775642;79;21017;-62
2021/05/16 12:11:51;;;;;;;4.75;2.40;;;;;;;33.03;28.91;99532.70;1783320;78;21053;-71
2021/05/16 12:14:26;;;;;;;3.98;1.65;;;;;;;33.16;29.53;99528.77;1782243;78;20957;-62
2021/05/16 12:16:59;;;;;;;4.30;1.90;;;;;;;33.25;29.67;99533.19;1771683;79;21006;-72
2021/05/16 12:19:30;;;;;;;4.05;1.70;;;;;;;33.39;29.19;99525.39;1777133;79;21128;-63
2021/05/16 12:22:06;;;;;;;7.22;2.40;;;;;;;33.41;29.17;99535.27;1774985;79;21563;-63
2021/05/16 12:24:45;;;;;;;4.35;1.82;;;;;;;33.07;29.47;99515.23;1791074;79;22298;-71
2021/05/16 12:27:13;;;;;;;3.25;1.65;;;;;;;32.93;30.51;99521.08;1787572;79;20972;-64
2021/05/16 12:29:40;;;;;;;5.10;1.70;;;;;;;33.10;30.13;99518.02;1773409;79;21073;-71
2021/05/16 12:32:09;;;;;;;4.42;1.80;;;;;;;33.28;29.41;99510.88;1768684;79;21112;-72
2021/05/16 12:34:36;;;;;;;4.37;1.77;;;;;;;33.33;29.31;99514.64;1770098;79;21025;-73
2021/05/16 12:37:17;;;;;;;8.90;2.00;;;;;;;33.18;29.73;99504.09;1772707;79;20932;-63
2021/05/16 12:39:48;;;;;;;7.25;5.00;;;;;;;32.99;29.70;99506.19;1758040;79;21023;-61
2021/05/16 12:42:44;;;;;;;65.20;58.90;;;;;;;32.80;29.75;99508.80;1780650;79;21009;-75
2021/05/16 12:45:23;;;;;;;281.23;256.87;;;;;;;32.70;30.66;99502.82;1755429;78;21128;-65
2021/05/16 12:47:59;;;;;;;18.95;17.25;;;;;;;32.63;30.48;99487.80;1777173;79;21003;-72
2021/05/16 12:50:43;;;;;;;10.55;7.70;;;;;;;32.48;30.25;99481.86;1791435;79;20978;-72
2021/05/16 12:53:29;;;;;;;8.53;5.55;;;;;;;32.44;31.06;99483.69;1791349;79;20954;-74
2021/05/16 12:56:04;;;;;;;4.87;2.50;;;;;;;32.45;31.08;99485.24;1778708;79;20930;-73
2021/05/16 12:58:38;;;;;;;8.30;3.17;;;;;;;32.42;31.15;99486.71;1781330;79;21138;-69
2021/05/16 13:01:02;;;;;;;4.03;2.15;;;;;;;32.54;31.60;99485.05;1773927;79;20986;-76
2021/05/16 13:03:32;;;;;;;6.58;2.20;;;;;;;32.74;30.40;99475.92;1767850;79;20942;-63
2021/05/16 13:06:10;;;;;;;10.68;7.95;;;;;;;32.84;30.20;99467.83;1767206;79;20974;-73
2021/05/16 13:08:41;;;;;;;4.28;3.10;;;;;;;32.82;31.11;99468.19;1758074;79;21109;-73
2021/05/16 13:11:09;;;;;;;5.75;4.85;;;;;;;32.76;30.56;99465.53;1731991;80;23250;-72
2021/05/16 13:13:42;;;;;;;6.92;2.70;;;;;;;32.57;30.76;99463.56;1709813;82;20968;-70
2021/05/16 13:16:15;;;;;;;5.00;2.17;;;;;;;32.45;31.19;99466.36;1778295;79;21064;-68
2021/05/16 13:18:55;;;;;;;6.17;4.95;;;;;;;32.45;30.90;99459.05;1786033;79;20993;-70
2021/05/16 13:21:25;;;;;;;4.15;2.80;;;;;;;32.36;31.22;99455.73;1708947;82;21132;-73
2021/05/16 13:24:02;;;;;;;5.67;4.17;;;;;;;32.36;31.22;99455.73;1773383;79;21087;-70
2021/05/16 13:26:47;;;;;;;5.35;2.00;;;;;;;32.23;31.64;99453.66;1782100;79;21575;-71
2021/05/16 13:29:15;;;;;;;8.18;4.37;;;;;;;32.07;31.30;99448.05;1769616;79;21108;-73
2021/05/16 13:31:42;;;;;;;4.42;2.60;;;;;;;31.85;31.60;99449.38;1789677;79;20918;-73
2021/05/16 13:34:28;;;;;;;9.73;2.72;;;;;;;31.69;31.54;99437.23;1776914;79;21010;-73
2021/05/16 13:36:56;;;;;;;5.12;3.47;;;;;;;31.56;31.91;99440.55;1774544;79;21471;-72
2021/05/16 13:39:25;;;;;;;7.90;3.45;;;;;;;31.54;33.26;99439.31;1797145;79;21421;-73
2021/05/16 13:41:52;;;;;;;5.55;2.45;;;;;;;31.59;32.74;99435.80;1786189;79;20933;-72
2021/05/16 13:44:18;;;;;;;7.60;6.12;;;;;;;31.63;32.90;99434.01;1785980;79;20965;-63
2021/05/16 13:46:47;;;;;;;42.67;24.07;;;;;;;31.74;33.18;99427.53;1787792;79;21502;-73
2021/05/16 13:49:14;;;;;;;15.93;8.98;;;;;;;31.78;33.27;99423.59;1780836;79;21085;-69
2021/05/16 13:51:41;;;;;;;45.75;41.70;;;;;;;31.73;33.26;99421.36;1787335;79;21029;-72
2021/05/16 13:54:09;;;;;;;61.28;56.05;;;;;;;31.62;33.63;99425.69;1784530;79;20927;-64
2021/05/16 13:56:37;;;;;;;67.97;61.50;;;;;;;31.49;33.56;99427.66;1772195;79;21001;-73
2021/05/16 13:59:08;;;;;;;152.95;139.45;;;;;;;31.29;33.68;99426.45;1785731;79;21100;-67
2021/05/16 14:01:35;;;;;;;93.92;84.80;;;;;;;31.11;33.96;99430.78;1770390;79;21021;-70
2021/05/16 14:04:05;;;;;;;74.17;66.30;;;;;;;30.95;34.43;99423.98;1775922;79;21014;-64
2021/05/16 14:06:32;;;;;;;49.63;44.80;;;;;;;30.84;35.45;99428.80;1779713;79;21463;-71
2021/05/16 14:09:00;;;;;;;46.60;41.73;;;;;;;30.77;35.56;99415.94;1771138;79;21016;-70
2021/05/16 14:11:27;;;;;;;17.87;13.75;;;;;;;30.73;36.30;99423.87;1783258;79;21543;-70
2021/05/16 14:13:54;;;;;;;9.90;6.55;;;;;;;30.75;36.35;99410.88;1777723;79;21068;-70
2021/05/16 14:16:22;;;;;;;8.95;5.08;;;;;;;30.78;36.36;99410.20;1769180;79;20844;-69
2021/05/16 14:18:49;;;;;;;15.32;13.35;;;;;;;30.75;36.43;99394.73;1771120;79;21041;-70
2021/05/16 14:21:15;;;;;;;9.20;6.62;;;;;;;30.78;36.87;99398.66;1780393;79;21534;-62
2021/05/16 14:23:42;;;;;;;25.17;20.02;;;;;;;30.81;37.20;99387.80;1779731;79;20938;-71
2021/05/16 14:26:08;;;;;;;12.15;6.10;;;;;;;30.82;37.85;99400.12;1787158;79;21501;-62
2021/05/16 14:28:37;;;;;;;4.95;2.33;;;;;;;30.73;37.59;99390.24;1773631;79;21152;-68
2021/05/16 14:31:03;;;;;;;3.62;2.15;;;;;;;30.56;37.33;99393.73;1787624;79;21677;-69
2021/05/16 14:33:30;;;;;;;6.03;2.45;;;;;;;30.40;37.53;99388.25;1774159;79;20965;-63
2021/05/16 14:35:57;;;;;;;7.33;3.62;;;;;;;30.29;38.33;99384.66;1772286;79;20997;-71
2021/05/16 14:38:23;;;;;;;5.95;2.83;;;;;;;30.22;39.18;99380.95;1783875;79;22509;-72
2021/05/16 14:40:50;;;;;;;5.35;2.25;;;;;;;30.19;39.32;99377.05;1781497;79;21021;-71
2021/05/16 14:43:18;;;;;;;6.10;1.75;;;;;;;30.19;40.55;99370.33;1781019;79;20938;-70
2021/05/16 14:45:47;;;;;;;3.37;2.10;;;;;;;30.19;40.40;99374.36;1779440;79;20907;-65
2021/05/16 14:48:14;;;;;;;5.33;2.70;;;;;;;30.17;41.19;99373.91;1785033;79;21106;-69